createdAt,value
2023-05-24T00:00:18.034Z,99539.44
2023-05-24T00:01:23.760Z,99534.20
2023-05-24T00:02:34.408Z,99533.19
2023-05-24T00:03:38.766Z,99536.89
2023-05-24T00:04:41.897Z,99532.48
2023-05-24T00:05:47.293Z,99528.08
2023-05-24T00:06:51.325Z,99532.62
2023-05-24T00:07:54.479Z,99533.60
2023-05-24T00:08:57.578Z,99538.00
2023-05-24T00:10:00.640Z,99533.60
2023-05-24T00:11:05.691Z,99533.60
2023-05-24T00:12:10.247Z,99538.14
2023-05-24T00:13:15.113Z,99534.58
2023-05-24T00:14:20.612Z,99539.11
2023-05-24T00:15:23.583Z,99529.20
2023-05-24T00:16:26.401Z,99535.55
2023-05-24T00:17:29.756Z,99541.94
2023-05-24T00:18:32.537Z,99541.06
2023-05-24T00:19:39.193Z,99544.77
2023-05-24T00:20:43.061Z,99538.52
2023-05-24T00:21:47.626Z,99540.23
2023-05-24T00:22:51.203Z,99536.70
2023-05-24T00:23:54.913Z,99535.69
2023-05-24T00:24:58.065Z,99537.54
2023-05-24T00:26:01.020Z,99534.85
2023-05-24T00:27:05.585Z,99532.16
2023-05-24T00:28:09.813Z,99537.54
2023-05-24T00:29:13.236Z,99535.69
2023-05-24T00:30:16.273Z,99539.39
2023-05-24T00:31:21.623Z,99540.23
2023-05-24T00:32:25.891Z,99534.85
2023-05-24T00:33:29.156Z,99534.85
2023-05-24T00:34:32.980Z,99533.00
2023-05-24T00:35:36.235Z,99533.00
2023-05-24T00:36:39.302Z,99541.94
2023-05-24T00:37:44.526Z,99533.00
2023-05-24T00:38:47.612Z,99535.69
2023-05-24T00:39:52.336Z,99535.69
2023-05-24T00:40:59.919Z,99536.56
2023-05-24T00:42:03.306Z,99532.16
2023-05-24T00:43:06.732Z,99535.69
2023-05-24T00:44:10.698Z,99539.25
2023-05-24T00:45:14.028Z,99537.41
2023-05-24T00:46:31.517Z,99536.56
2023-05-24T00:47:35.843Z,99539.25
2023-05-24T00:48:39.433Z,99536.56
2023-05-24T00:49:42.836Z,99545.47
2023-05-24T00:50:45.889Z,99544.63
2023-05-24T00:51:49.550Z,99540.93
2023-05-24T00:52:52.521Z,99541.06
2023-05-24T00:53:56.419Z,99541.06
2023-05-24T00:54:59.653Z,99536.56
2023-05-24T00:56:04.386Z,99541.06
2023-05-24T00:57:08.122Z,99539.25
2023-05-24T00:58:10.968Z,99541.06
2023-05-24T00:59:14.037Z,99542.92
2023-05-24T01:00:17.963Z,99537.54
2023-05-24T01:01:21.096Z,99540.23
2023-05-24T01:02:25.452Z,99547.32
2023-05-24T01:03:31.107Z,99543.75
2023-05-24T01:04:35.188Z,99543.89
2023-05-24T01:05:41.150Z,99544.63
2023-05-24T01:06:55.795Z,99545.61
2023-05-24T01:08:12.220Z,99540.23
2023-05-24T01:09:34.090Z,99535.69
2023-05-24T01:12:44.261Z,99534.77
2023-05-24T01:14:08.241Z,99535.69
2023-05-24T01:15:27.460Z,99535.69
2023-05-24T01:16:40.252Z,99542.08
2023-05-24T01:17:56.103Z,99540.36
2023-05-24T01:19:04.589Z,99546.72
2023-05-24T01:20:10.455Z,99545.88
2023-05-24T01:23:20.516Z,99545.20
2023-05-24T01:24:27.197Z,99545.14
2023-05-24T01:25:41.570Z,99546.15
2023-05-24T01:27:08.866Z,99552.50
2023-05-24T01:28:11.571Z,99548.84
2023-05-24T01:29:14.966Z,99553.34
2023-05-24T01:30:18.372Z,99548.95
2023-05-24T01:31:21.259Z,99548.10
2023-05-24T01:32:27.090Z,99548.10
2023-05-24T01:33:29.989Z,99542.72
2023-05-24T01:34:32.699Z,99552.64
2023-05-24T01:35:37.659Z,99550.79
2023-05-24T01:36:41.763Z,99546.25
2023-05-24T01:37:44.775Z,99552.50
2023-05-24T01:38:48.281Z,99548.95
2023-05-24T01:39:52.417Z,99547.12
2023-05-24T01:40:59.826Z,99550.66
2023-05-24T01:42:27.305Z,99550.66
2023-05-24T01:43:33.250Z,99551.53
2023-05-24T01:46:24.472Z,99540.83
2023-05-24T01:47:37.872Z,99551.53
2023-05-24T01:48:47.549Z,99544.44
2023-05-24T01:49:54.089Z,99544.58
2023-05-24T01:51:00.856Z,99550.79
2023-05-24T01:53:25.932Z,99544.63
2023-05-24T01:54:33.982Z,99547.27
2023-05-24T01:55:36.716Z,99558.02
2023-05-24T01:56:40.511Z,99559.83
2023-05-24T01:57:43.986Z,99555.33
2023-05-24T01:58:47.273Z,99558.86
2023-05-24T01:59:50.930Z,99551.77
2023-05-24T02:00:54.266Z,99553.48
2023-05-24T02:01:57.193Z,99563.27
2023-05-24T02:03:01.752Z,99558.86
2023-05-24T02:04:04.514Z,99557.88
2023-05-24T02:05:09.988Z,99561.41
2023-05-24T02:06:14.019Z,99556.03
2023-05-24T02:07:18.240Z,99553.34
2023-05-24T02:08:21.513Z,99556.91
2023-05-24T02:09:24.299Z,99549.81
2023-05-24T02:10:27.203Z,99547.12
2023-05-24T02:11:30.826Z,99549.68
2023-05-24T02:12:34.173Z,99559.59
2023-05-24T02:13:37.760Z,99554.22
2023-05-24T02:14:42.060Z,99564.09
2023-05-24T02:15:48.006Z,99564.09
2023-05-24T02:16:51.332Z,99557.88
2023-05-24T02:17:55.578Z,99561.41
2023-05-24T02:18:59.812Z,99558.86
2023-05-24T02:20:04.546Z,99563.27
2023-05-24T02:21:07.416Z,99560.70
2023-05-24T02:22:11.113Z,99556.17
2023-05-24T02:23:14.826Z,99564.23
2023-05-24T02:24:19.255Z,99567.77
2023-05-24T02:25:23.338Z,99561.55
2023-05-24T02:26:26.822Z,99564.23
2023-05-24T02:27:29.876Z,99562.52
2023-05-24T02:28:32.876Z,99564.38
2023-05-24T02:29:36.286Z,99566.09
2023-05-24T02:30:40.209Z,99566.92
2023-05-24T02:31:45.003Z,99567.91
2023-05-24T02:32:48.647Z,99572.30
2023-05-24T02:33:53.138Z,99571.46
2023-05-24T02:34:56.390Z,99573.14
2023-05-24T02:36:01.221Z,99571.46
2023-05-24T02:37:06.737Z,99564.23
2023-05-24T02:38:11.349Z,99568.91
2023-05-24T02:39:16.605Z,99567.91
2023-05-24T02:40:19.670Z,99575.97
2023-05-24T02:41:22.668Z,99572.58
2023-05-24T02:42:26.577Z,99568.91
2023-05-24T02:43:31.139Z,99568.91
2023-05-24T02:44:34.372Z,99572.44
2023-05-24T02:45:37.314Z,99569.75
2023-05-24T02:46:40.878Z,99571.59
2023-05-24T02:47:43.736Z,99568.77
2023-05-24T02:48:46.807Z,99578.52
2023-05-24T02:49:50.076Z,99579.39
2023-05-24T02:50:53.973Z,99574.86
2023-05-24T02:51:57.412Z,99573.87
2023-05-24T02:53:00.508Z,99571.19
2023-05-24T02:54:05.083Z,99571.19
2023-05-24T02:55:09.413Z,99572.91
2023-05-24T02:56:13.624Z,99577.41
2023-05-24T02:57:17.731Z,99573.87
2023-05-24T02:58:21.349Z,99574.72
2023-05-24T02:59:26.159Z,99571.19
2023-05-24T03:00:29.203Z,99571.06
2023-05-24T03:01:33.673Z,99577.27
2023-05-24T03:03:51.478Z,99570.14
2023-05-24T03:04:55.397Z,99573.75
2023-05-24T03:05:58.851Z,99572.91
2023-05-24T03:07:02.710Z,99571.06
2023-05-24T03:08:07.313Z,99572.03
2023-05-24T03:09:10.463Z,99572.16
2023-05-24T03:10:15.969Z,99569.48
2023-05-24T03:11:21.096Z,99569.61
2023-05-24T03:12:24.027Z,99570.59
2023-05-24T03:13:27.521Z,99576.98
2023-05-24T03:14:31.690Z,99572.70
2023-05-24T03:15:34.654Z,99573.82
2023-05-24T03:16:38.122Z,99571.40
2023-05-24T03:17:41.470Z,99573.22
2023-05-24T03:18:45.601Z,99568.95
2023-05-24T03:19:48.622Z,99570.80
2023-05-24T03:20:51.469Z,99571.77
2023-05-24T03:21:55.159Z,99567.41
2023-05-24T03:22:59.291Z,99571.77
2023-05-24T03:25:15.250Z,99574.28
2023-05-24T03:27:31.857Z,99580.38
2023-05-24T03:28:35.720Z,99574.80
2023-05-24T03:29:39.432Z,99569.42
2023-05-24T03:30:42.963Z,99580.91
2023-05-24T03:31:46.077Z,99582.59
2023-05-24T03:32:49.325Z,99578.92
2023-05-24T03:33:53.341Z,99577.95
2023-05-24T03:34:58.652Z,99583.19
2023-05-24T03:36:04.069Z,99575.13
2023-05-24T03:37:07.655Z,99578.66
2023-05-24T03:39:23.960Z,99575.05
2023-05-24T03:40:30.447Z,99578.66
2023-05-24T03:41:34.961Z,99577.68
2023-05-24T03:42:39.060Z,99572.30
2023-05-24T03:43:42.658Z,99577.68
2023-05-24T03:44:47.640Z,99574.99
2023-05-24T03:45:51.712Z,99575.83
2023-05-24T03:46:55.451Z,99575.83
2023-05-24T03:47:58.298Z,99580.38
2023-05-24T03:49:02.309Z,99573.55
2023-05-24T03:50:07.077Z,99573.55
2023-05-24T03:51:10.953Z,99582.08
2023-05-24T03:52:14.136Z,99582.08
2023-05-24T03:53:17.875Z,99581.11
2023-05-24T03:54:20.537Z,99578.52
2023-05-24T03:55:23.102Z,99585.61
2023-05-24T03:56:28.275Z,99581.95
2023-05-24T03:57:31.502Z,99583.80
2023-05-24T03:58:34.341Z,99582.92
2023-05-24T03:59:38.324Z,99589.17
2023-05-24T04:00:42.647Z,99584.91
2023-05-24T04:01:46.870Z,99580.50
2023-05-24T04:02:50.889Z,99586.99
2023-05-24T04:03:55.910Z,99581.75
2023-05-24T04:05:00.605Z,99586.28
2023-05-24T04:06:03.633Z,99594.35
2023-05-24T04:07:09.967Z,99589.81
2023-05-24T04:08:14.661Z,99585.28
2023-05-24T04:09:19.031Z,99587.97
2023-05-24T04:10:22.504Z,99586.28
2023-05-24T04:11:28.717Z,99588.84
2023-05-24T04:12:32.469Z,99591.66
2023-05-24T04:13:35.619Z,99590.79
2023-05-24T04:14:38.724Z,99584.44
2023-05-24T04:15:42.843Z,99591.66
2023-05-24T04:16:49.226Z,99591.66
2023-05-24T04:17:55.582Z,99594.35
2023-05-24T04:19:00.574Z,99592.77
2023-05-24T04:20:06.040Z,99592.91
2023-05-24T04:21:08.957Z,99592.17
2023-05-24T04:22:12.808Z,99595.73
2023-05-24T04:23:15.887Z,99589.34
2023-05-24T04:24:20.114Z,99584.70
2023-05-24T04:25:23.531Z,99593.75
2023-05-24T04:26:27.020Z,99600.09
2023-05-24T04:27:31.142Z,99591.91
2023-05-24T04:28:33.882Z,99593.61
2023-05-24T04:29:38.794Z,99598.15
2023-05-24T04:30:42.784Z,99594.59
2023-05-24T04:31:49.006Z,99600.84
2023-05-24T04:32:53.260Z,99599.86
2023-05-24T04:33:58.646Z,99602.55
2023-05-24T04:35:03.284Z,99599.86
2023-05-24T04:36:07.737Z,99605.24
2023-05-24T04:37:10.289Z,99602.55
2023-05-24T04:38:14.258Z,99600.70
2023-05-24T04:39:18.909Z,99605.24
2023-05-24T04:40:22.658Z,99607.05
2023-05-24T04:41:26.472Z,99603.53
2023-05-24T04:42:31.136Z,99599.86
2023-05-24T04:43:34.312Z,99608.03
2023-05-24T04:44:37.816Z,99608.91
2023-05-24T04:45:41.276Z,99610.72
2023-05-24T04:46:44.677Z,99610.62
2023-05-24T04:47:47.528Z,99607.93
2023-05-24T04:48:50.464Z,99611.45
2023-05-24T04:49:54.791Z,99614.98
2023-05-24T04:50:58.902Z,99614.02
2023-05-24T04:52:02.324Z,99614.85
2023-05-24T04:53:06.327Z,99617.55
2023-05-24T04:55:22.242Z,99619.33
2023-05-24T04:56:25.308Z,99616.57
2023-05-24T04:57:29.610Z,99616.57
2023-05-24T04:58:32.835Z,99629.03
2023-05-24T04:59:36.519Z,99620.00
2023-05-24T05:00:41.030Z,99618.15
2023-05-24T05:01:44.045Z,99628.06
2023-05-24T05:02:47.476Z,99623.66
2023-05-24T05:03:50.873Z,99624.50
2023-05-24T05:04:53.772Z,99623.52
2023-05-24T05:05:57.436Z,99627.19
2023-05-24T05:07:00.717Z,99628.91
2023-05-24T05:08:04.404Z,99617.31
2023-05-24T05:09:12.529Z,99626.22
2023-05-24T05:10:16.508Z,99627.05
2023-05-24T05:11:20.029Z,99623.39
2023-05-24T05:12:24.018Z,99619.86
2023-05-24T05:13:27.390Z,99618.86
2023-05-24T05:14:30.854Z,99617.04
2023-05-24T05:15:34.509Z,99625.11
2023-05-24T05:16:39.115Z,99619.73
2023-05-24T05:17:43.227Z,99621.44
2023-05-24T05:18:48.481Z,99616.06
2023-05-24T05:19:51.367Z,99619.59
2023-05-24T05:20:54.410Z,99622.28
2023-05-24T05:21:58.159Z,99623.12
2023-05-24T05:23:01.306Z,99620.44
2023-05-24T05:24:04.731Z,99621.17
2023-05-24T05:25:08.527Z,99613.48
2023-05-24T05:26:11.922Z,99613.48
2023-05-24T05:27:14.955Z,99620.20
2023-05-24T05:28:20.025Z,99621.04
2023-05-24T05:29:24.544Z,99621.88
2023-05-24T05:30:27.723Z,99620.91
2023-05-24T05:31:32.336Z,99621.75
2023-05-24T05:32:35.813Z,99617.23
2023-05-24T05:33:39.447Z,99624.30
2023-05-24T05:34:43.090Z,99621.61
2023-05-24T05:35:46.947Z,99624.30
2023-05-24T05:36:51.411Z,99620.63
2023-05-24T05:37:54.346Z,99618.82
2023-05-24T05:38:57.506Z,99619.19
2023-05-24T05:40:00.230Z,99619.19
2023-05-24T05:41:03.795Z,99627.73
2023-05-24T05:42:06.923Z,99631.26
2023-05-24T05:43:09.585Z,99639.19
2023-05-24T05:44:13.403Z,99635.66
2023-05-24T05:45:17.575Z,99637.51
2023-05-24T05:46:21.572Z,99639.33
2023-05-24T05:47:25.036Z,99634.82
2023-05-24T05:48:28.361Z,99648.13
2023-05-24T05:49:33.509Z,99648.13
2023-05-24T05:50:38.002Z,99649.95
2023-05-24T05:51:41.544Z,99648.13
2023-05-24T05:52:46.216Z,99642.75
2023-05-24T05:53:49.896Z,99649.11
2023-05-24T05:54:53.922Z,99646.42
2023-05-24T05:55:56.744Z,99653.52
2023-05-24T05:57:01.530Z,99648.98
2023-05-24T05:58:05.461Z,99652.64
2023-05-24T05:59:09.649Z,99653.52
2023-05-24T06:00:14.047Z,99645.45
2023-05-24T06:01:17.708Z,99650.83
2023-05-24T06:02:22.686Z,99650.83
2023-05-24T06:03:27.586Z,99653.52
2023-05-24T06:04:31.266Z,99653.52
2023-05-24T06:05:36.116Z,99650.83
2023-05-24T06:06:39.030Z,99657.05
2023-05-24T06:07:41.985Z,99651.66
2023-05-24T06:08:45.536Z,99654.35
2023-05-24T06:09:48.952Z,99655.23
2023-05-24T06:10:53.102Z,99645.45
2023-05-24T06:11:57.015Z,99646.42
2023-05-24T06:13:03.001Z,99648.98
2023-05-24T06:14:06.554Z,99654.35
2023-05-24T06:15:09.956Z,99647.27
2023-05-24T06:16:14.376Z,99641.05
2023-05-24T06:17:18.045Z,99648.27
2023-05-24T06:18:20.810Z,99648.98
2023-05-24T06:19:25.009Z,99651.66
2023-05-24T06:20:28.468Z,99648.98
2023-05-24T06:21:32.232Z,99642.63
2023-05-24T06:22:36.073Z,99648.00
2023-05-24T06:23:43.649Z,99643.46
2023-05-24T06:24:46.532Z,99642.48
2023-05-24T06:25:50.716Z,99647.87
2023-05-24T06:26:53.435Z,99643.33
2023-05-24T06:27:56.962Z,99649.58
2023-05-24T06:29:00.352Z,99645.04
2023-05-24T06:30:03.699Z,99645.04
2023-05-24T06:31:06.432Z,99645.04
2023-05-24T06:32:10.683Z,99645.04
2023-05-24T06:33:14.114Z,99645.04
2023-05-24T06:34:21.337Z,99647.73
2023-05-24T06:35:26.410Z,99640.53
2023-05-24T06:36:30.917Z,99641.51
2023-05-24T06:37:33.548Z,99641.51
2023-05-24T06:38:36.283Z,99636.97
2023-05-24T06:39:40.667Z,99637.95
2023-05-24T06:40:44.519Z,99637.11
2023-05-24T06:41:50.934Z,99637.95
2023-05-24T06:42:58.126Z,99636.97
2023-05-24T06:44:02.474Z,99646.89
2023-05-24T06:45:08.754Z,99645.17
2023-05-24T06:46:13.169Z,99641.64
2023-05-24T06:47:16.760Z,99647.87
2023-05-24T06:48:21.690Z,99647.02
2023-05-24T06:49:25.252Z,99651.39
2023-05-24T06:50:28.222Z,99651.39
2023-05-24T06:51:33.172Z,99652.41
2023-05-24T06:52:36.864Z,99649.72
2023-05-24T06:53:41.995Z,99641.78
2023-05-24T06:54:45.673Z,99642.63
2023-05-24T06:55:49.344Z,99635.93
2023-05-24T06:56:52.285Z,99635.93
2023-05-24T06:57:54.975Z,99642.63
2023-05-24T06:58:59.329Z,99641.78
2023-05-24T07:00:04.320Z,99641.78
2023-05-24T07:01:07.115Z,99649.84
2023-05-24T07:02:11.211Z,99642.63
2023-05-24T07:03:13.840Z,99647.16
2023-05-24T07:04:18.337Z,99648.98
2023-05-24T07:05:21.845Z,99648.98
2023-05-24T07:06:25.321Z,99646.28
2023-05-24T07:07:28.543Z,99649.95
2023-05-24T07:08:32.021Z,99650.09
2023-05-24T07:09:35.648Z,99649.11
2023-05-24T07:10:40.606Z,99650.95
2023-05-24T07:11:45.294Z,99646.42
2023-05-24T07:12:48.943Z,99650.83
2023-05-24T07:13:52.699Z,99654.48
2023-05-24T07:14:55.729Z,99653.65
2023-05-24T07:15:58.733Z,99653.52
2023-05-24T07:17:02.542Z,99656.06
2023-05-24T07:18:06.571Z,99645.31
2023-05-24T07:19:09.304Z,99648.00
2023-05-24T07:20:13.279Z,99652.41
2023-05-24T07:21:17.008Z,99652.41
2023-05-24T07:22:19.660Z,99644.34
2023-05-24T07:23:23.061Z,99650.55
2023-05-24T07:24:26.643Z,99647.87
2023-05-24T07:25:30.241Z,99648.70
2023-05-24T07:26:33.659Z,99644.20
2023-05-24T07:27:37.112Z,99649.58
2023-05-24T07:28:40.974Z,99653.98
2023-05-24T07:29:46.979Z,99648.61
2023-05-24T07:30:49.722Z,99651.16
2023-05-24T07:31:55.601Z,99650.16
2023-05-24T07:32:58.252Z,99648.34
2023-05-24T07:34:01.908Z,99647.33
2023-05-24T07:35:06.108Z,99646.35
2023-05-24T07:36:10.657Z,99643.66
2023-05-24T07:37:14.247Z,99643.66
2023-05-24T07:38:17.957Z,99647.25
2023-05-24T07:39:20.861Z,99649.04
2023-05-24T07:40:23.844Z,99647.25
2023-05-24T07:41:28.191Z,99647.25
2023-05-24T07:42:32.442Z,99649.95
2023-05-24T07:43:37.772Z,99652.64
2023-05-24T07:44:41.856Z,99652.64
2023-05-24T07:45:45.808Z,99654.42
2023-05-24T07:46:50.438Z,99649.04
2023-05-24T07:47:56.018Z,99649.95
2023-05-24T07:48:59.078Z,99651.63
2023-05-24T07:50:03.975Z,99647.12
2023-05-24T07:51:07.795Z,99646.25
2023-05-24T07:52:10.833Z,99639.89
2023-05-24T07:53:14.787Z,99650.66
2023-05-24T07:54:19.587Z,99648.80
2023-05-24T07:55:22.314Z,99652.37
2023-05-24T07:56:25.049Z,99647.83
2023-05-24T07:57:28.904Z,99655.90
2023-05-24T07:58:33.180Z,99653.20
2023-05-24T07:59:36.222Z,99640.63
2023-05-24T08:00:39.132Z,99652.37
2023-05-24T08:01:42.774Z,99646.01
2023-05-24T08:02:48.692Z,99650.52
2023-05-24T08:03:52.355Z,99654.92
2023-05-24T08:04:55.357Z,99652.23
2023-05-24T08:05:58.446Z,99660.30
2023-05-24T08:07:02.975Z,99661.14
2023-05-24T08:08:06.252Z,99656.64
2023-05-24T08:09:10.929Z,99654.78
2023-05-24T08:10:16.062Z,99651.13
2023-05-24T08:11:19.009Z,99650.14
2023-05-24T08:12:21.986Z,99657.34
2023-05-24T08:13:26.154Z,99664.44
2023-05-24T08:14:28.757Z,99667.13
2023-05-24T08:15:31.947Z,99652.37
2023-05-24T08:16:35.809Z,99652.37
2023-05-24T08:17:39.227Z,99659.05
2023-05-24T08:18:42.011Z,99650.14
2023-05-24T08:19:46.212Z,99648.30
2023-05-24T08:20:49.022Z,99649.13
2023-05-24T08:21:56.880Z,99656.36
2023-05-24T08:23:00.460Z,99661.74
2023-05-24T08:24:06.194Z,99654.52
2023-05-24T08:25:10.799Z,99660.91
2023-05-24T08:26:16.100Z,99659.05
2023-05-24T08:27:23.432Z,99650.14
2023-05-24T08:28:27.865Z,99650.98
2023-05-24T08:29:32.329Z,99645.73
2023-05-24T08:30:38.399Z,99658.21
2023-05-24T08:31:41.824Z,99647.45
2023-05-24T08:32:46.069Z,99648.30
2023-05-24T08:33:50.439Z,99650.98
2023-05-24T08:35:00.430Z,99650.98
2023-05-24T08:35:58.660Z,99650.98
2023-05-24T08:38:17.877Z,99655.31
2023-05-24T08:39:21.175Z,99648.16
2023-05-24T08:40:24.877Z,99652.56
2023-05-24T08:41:28.991Z,99647.18
2023-05-24T08:42:31.714Z,99638.09
2023-05-24T08:43:34.868Z,99643.48
2023-05-24T08:44:48.902Z,99640.80
2023-05-24T08:45:52.364Z,99635.41
2023-05-24T08:46:56.030Z,99639.11
2023-05-24T08:48:01.074Z,99645.33
2023-05-24T08:49:05.442Z,99641.80
2023-05-24T08:50:08.926Z,99642.64
2023-05-24T08:51:19.254Z,99634.70
2023-05-24T08:52:23.249Z,99641.94
2023-05-24T08:53:26.397Z,99641.94
2023-05-24T08:54:30.710Z,99636.55
2023-05-24T08:55:34.082Z,99640.09
2023-05-24T08:56:39.228Z,99640.92
2023-05-24T08:57:42.470Z,99640.09
2023-05-24T08:58:46.944Z,99634.57
2023-05-24T08:59:50.508Z,99641.80
2023-05-24T09:00:55.026Z,99633.73
2023-05-24T09:01:58.373Z,99641.80
2023-05-24T09:03:02.593Z,99642.64
2023-05-24T09:04:05.967Z,99645.33
2023-05-24T09:06:25.142Z,99641.86
2023-05-24T09:07:29.385Z,99650.72
2023-05-24T09:08:35.710Z,99648.16
2023-05-24T09:09:43.458Z,99654.38
2023-05-24T09:10:54.578Z,99644.63
2023-05-24T09:11:51.846Z,99651.83
2023-05-24T09:12:57.280Z,99647.31
2023-05-24T09:14:02.020Z,99643.05
2023-05-24T09:15:06.013Z,99643.05
2023-05-24T09:16:09.378Z,99641.34
2023-05-24T09:17:14.435Z,99642.31
2023-05-24T09:18:17.595Z,99646.85
2023-05-24T09:19:20.567Z,99641.61
2023-05-24T09:20:23.339Z,99648.70
2023-05-24T09:21:28.956Z,99653.34
2023-05-24T09:22:38.781Z,99652.37
2023-05-24T09:23:40.939Z,99656.77
2023-05-24T09:24:45.993Z,99652.37
2023-05-24T09:25:48.724Z,99651.39
2023-05-24T09:26:51.942Z,99653.20
2023-05-24T09:27:55.843Z,99643.42
2023-05-24T09:29:00.629Z,99643.32
2023-05-24T09:30:07.620Z,99643.42
2023-05-24T09:31:12.166Z,99631.82
2023-05-24T09:32:16.213Z,99637.20
2023-05-24T09:33:19.486Z,99641.73
2023-05-24T09:34:23.122Z,99646.11
2023-05-24T09:35:27.503Z,99644.30
2023-05-24T09:36:32.636Z,99652.37
2023-05-24T09:37:36.201Z,99658.59
2023-05-24T09:38:39.326Z,99652.37
2023-05-24T09:39:51.092Z,99650.66
2023-05-24T09:40:59.929Z,99647.12
2023-05-24T09:42:04.142Z,99659.70
2023-05-24T09:43:09.562Z,99657.88
2023-05-24T09:44:16.226Z,99650.66
2023-05-24T09:45:20.768Z,99647.96
2023-05-24T09:46:24.056Z,99647.12
2023-05-24T09:47:32.049Z,99655.19
2023-05-24T09:48:35.236Z,99647.12
2023-05-24T09:49:38.792Z,99646.25
2023-05-24T09:50:42.697Z,99650.66
2023-05-24T09:51:45.693Z,99655.90
2023-05-24T09:52:50.411Z,99647.96
2023-05-24T09:53:57.905Z,99655.05
2023-05-24T09:55:01.797Z,99654.92
2023-05-24T09:56:10.132Z,99659.46
2023-05-24T09:57:12.774Z,99660.17
2023-05-24T09:59:33.766Z,99664.77
2023-05-24T10:00:39.665Z,99664.84
2023-05-24T10:01:45.348Z,99660.30
2023-05-24T10:02:52.800Z,99661.14
2023-05-24T10:03:57.637Z,99666.52
2023-05-24T10:05:02.841Z,99661.14
2023-05-24T10:06:10.872Z,99662.99
2023-05-24T10:07:13.635Z,99653.95
2023-05-24T10:08:18.092Z,99655.77
2023-05-24T10:09:20.841Z,99661.14
2023-05-24T10:10:29.680Z,99658.45
2023-05-24T10:11:36.964Z,99662.99
2023-05-24T10:12:42.517Z,99660.17
2023-05-24T10:13:45.538Z,99663.83
2023-05-24T10:14:49.997Z,99668.23
2023-05-24T10:15:53.489Z,99662.86
2023-05-24T10:16:56.386Z,99661.14
2023-05-24T10:18:01.096Z,99665.55
2023-05-24T10:19:05.906Z,99660.03
2023-05-24T10:20:11.919Z,99660.91
2023-05-24T10:21:15.819Z,99666.28
2023-05-24T10:22:18.933Z,99660.91
2023-05-24T10:23:21.495Z,99659.89
2023-05-24T10:24:25.696Z,99664.30
2023-05-24T10:25:28.627Z,99660.77
2023-05-24T10:26:33.155Z,99654.38
2023-05-24T10:27:38.118Z,99653.41
2023-05-24T10:28:44.258Z,99661.34
2023-05-24T10:29:58.260Z,99655.12
2023-05-24T10:31:06.132Z,99653.27
2023-05-24T10:32:09.755Z,99660.36
2023-05-24T10:33:12.524Z,99648.02
2023-05-24T10:34:16.834Z,99648.02
2023-05-24T10:35:20.787Z,99658.37
2023-05-24T10:36:25.751Z,99654.00
2023-05-24T10:37:28.469Z,99658.37
2023-05-24T10:38:33.144Z,99650.44
2023-05-24T10:39:37.321Z,99662.08
2023-05-24T10:41:57.438Z,99662.97
2023-05-24T10:44:34.368Z,99662.84
2023-05-24T10:45:39.569Z,99666.45
2023-05-24T10:47:12.679Z,99672.84
2023-05-24T10:48:27.820Z,99678.22
2023-05-24T10:49:30.821Z,99679.06
2023-05-24T10:50:33.793Z,99670.98
2023-05-24T10:51:41.323Z,99664.77
2023-05-24T10:52:44.093Z,99670.98
2023-05-24T10:53:46.956Z,99664.63
2023-05-24T10:56:20.898Z,99666.40
2023-05-24T10:57:25.086Z,99663.76
2023-05-24T10:58:59.525Z,99669.14
2023-05-24T11:00:34.717Z,99668.16
2023-05-24T11:01:34.380Z,99664.50
2023-05-24T11:02:37.476Z,99674.28
2023-05-24T11:03:43.701Z,99672.43
2023-05-24T11:04:47.481Z,99668.03
2023-05-24T11:05:54.303Z,99671.59
2023-05-24T11:06:59.870Z,99673.27
2023-05-24T11:08:03.599Z,99674.14
2023-05-24T11:10:31.160Z,99675.91
2023-05-24T11:11:34.433Z,99686.63
2023-05-24T11:12:38.850Z,99685.61
2023-05-24T11:13:43.513Z,99693.69
2023-05-24T11:14:50.796Z,99683.06
2023-05-24T11:15:54.299Z,99694.56
2023-05-24T11:16:59.466Z,99687.33
2023-05-24T11:18:12.211Z,99688.17
2023-05-24T11:19:23.881Z,99687.20
2023-05-24T11:20:26.890Z,99683.53
2023-05-24T11:21:29.864Z,99689.75
2023-05-24T11:22:33.582Z,99686.22
2023-05-24T11:23:38.353Z,99683.53
2023-05-24T11:24:42.826Z,99678.14
2023-05-24T11:25:49.881Z,99683.53
2023-05-24T11:26:54.097Z,99691.59
2023-05-24T11:27:58.408Z,99679.96
2023-05-24T11:29:04.038Z,99677.27
2023-05-24T11:30:07.321Z,99682.66
2023-05-24T11:31:11.409Z,99669.33
2023-05-24T11:32:19.692Z,99682.66
2023-05-24T11:33:23.515Z,99683.53
2023-05-24T11:34:27.635Z,99673.60
2023-05-24T11:35:31.462Z,99674.48
2023-05-24T11:36:35.894Z,99669.09
2023-05-24T11:38:51.811Z,99671.56
2023-05-24T11:39:56.230Z,99677.03
2023-05-24T11:41:00.009Z,99677.03
2023-05-24T11:42:09.576Z,99674.20
2023-05-24T11:43:19.985Z,99673.23
2023-05-24T11:44:23.215Z,99667.84
2023-05-24T11:45:28.098Z,99670.53
2023-05-24T11:46:31.292Z,99675.78
2023-05-24T11:47:36.117Z,99673.09
2023-05-24T11:48:40.815Z,99666.70
2023-05-24T11:49:44.514Z,99671.23
2023-05-24T11:50:50.837Z,99661.31
2023-05-24T11:51:57.198Z,99661.31
2023-05-24T11:53:04.493Z,99662.19
2023-05-24T11:54:08.410Z,99658.63
2023-05-24T11:55:14.963Z,99661.31
2023-05-24T11:56:21.253Z,99658.63
2023-05-24T11:57:33.890Z,99663.16
2023-05-24T11:58:42.194Z,99654.25
2023-05-24T11:59:45.493Z,99655.09
2023-05-24T12:00:48.223Z,99652.40
2023-05-24T12:01:59.627Z,99648.73
2023-05-24T12:03:04.468Z,99644.19
2023-05-24T12:05:21.863Z,99644.23
2023-05-24T12:07:40.163Z,99644.23
2023-05-24T12:08:43.216Z,99644.19
2023-05-24T12:09:46.214Z,99644.19
2023-05-24T12:10:51.033Z,99656.66
2023-05-24T12:11:53.766Z,99644.05
2023-05-24T12:12:59.012Z,99637.69
2023-05-24T12:14:02.344Z,99631.33
2023-05-24T12:15:07.746Z,99625.94
2023-05-24T12:16:13.361Z,99635.70
2023-05-24T12:17:17.467Z,99634.86
2023-05-24T12:18:24.199Z,99630.31
2023-05-24T12:19:36.143Z,99633.01
2023-05-24T12:20:39.711Z,99631.19
2023-05-24T12:21:43.651Z,99628.50
2023-05-24T12:22:53.772Z,99630.31
2023-05-24T12:23:58.365Z,99619.69
2023-05-24T12:25:04.307Z,99628.63
2023-05-24T12:26:08.582Z,99623.39
2023-05-24T12:27:12.418Z,99626.92
2023-05-24T12:28:17.072Z,99630.45
2023-05-24T12:29:20.180Z,99628.63
2023-05-24T12:30:26.481Z,99631.19
2023-05-24T12:31:29.054Z,99629.48
2023-05-24T12:32:33.359Z,99635.70
2023-05-24T12:33:36.877Z,99632.03
2023-05-24T12:34:43.877Z,99633.88
2023-05-24T12:35:49.535Z,99632.16
2023-05-24T12:36:54.046Z,99634.86
2023-05-24T12:37:59.608Z,99631.19
2023-05-24T12:39:07.455Z,99633.01
2023-05-24T12:40:20.700Z,99626.64
2023-05-24T12:41:23.647Z,99629.33
2023-05-24T12:42:28.793Z,99627.52
2023-05-24T12:43:31.786Z,99642.80
2023-05-24T12:44:37.780Z,99628.36
2023-05-24T12:45:41.944Z,99627.52
2023-05-24T12:46:45.139Z,99622.13
2023-05-24T12:47:52.367Z,99625.66
2023-05-24T12:48:55.748Z,99626.50
2023-05-24T12:49:59.433Z,99622.97
2023-05-24T12:51:03.827Z,99627.37
2023-05-24T12:52:07.299Z,99624.69
2023-05-24T12:53:11.449Z,99621.86
2023-05-24T12:54:14.700Z,99619.16
2023-05-24T12:56:35.849Z,99612.95
2023-05-24T12:57:38.828Z,99614.62
2023-05-24T12:58:41.603Z,99611.09
2023-05-24T12:59:44.772Z,99609.23
2023-05-24T13:01:02.258Z,99611.93
2023-05-24T13:02:06.341Z,99617.17
2023-05-24T13:03:09.738Z,99610.95
2023-05-24T13:04:16.209Z,99615.35
2023-05-24T13:05:19.078Z,99608.12
2023-05-24T13:06:22.573Z,99601.89
2023-05-24T13:07:25.211Z,99605.28